Time;durP1;ratioP1;P1;durP2;ratioP2;P2;SDS_P1;SDS_P2;PMS_P1;PMS_P2;Temp;Humidity;BMP_temperature;BMP_pressure;BME280_temperature;BME280_humidity;BME280_pressure;Samples;Min_cycle;Max_cycle;Signal;HPM_P1;HPM_P2
2022/03/15 00:02:13;;;;;;;;;13.00;10.25;;;;;10.41;57.18;102134.84;5080307;27;47634;-73
2022/03/15 00:04:39;;;;;;;;;10.00;8.75;;;;;10.59;57.43;102158.63;5070821;27;45347;-73
2022/03/15 00:07:04;;;;;;;;;11.00;10.50;;;;;10.57;57.50;102153.25;5079838;28;45347;-73
2022/03/15 00:09:29;;;;;;;;;12.75;9.25;;;;;10.63;56.64;102158.81;5072143;28;45337;-73
2022/03/15 00:11:55;;;;;;;;;12.00;10.75;;;;;10.56;58.15;102146.16;5079643;28;46320;-73
2022/03/15 00:14:21;;;;;;;;;10.50;10.00;;;;;10.58;57.71;102139.19;5072963;28;45469;-73
2022/03/15 00:16:46;;;;;;;;;11.75;8.75;;;;;10.48;57.16;102116.72;5064652;28;45279;-75
2022/03/15 00:19:12;;;;;;;;;12.50;10.50;;;;;10.55;58.08;102128.47;5073873;27;45373;-73
2022/03/15 00:21:38;;;;;;;;;10.25;10.00;;;;;10.49;58.07;102109.69;5079175;28;45791;-73
2022/03/15 00:24:05;;;;;;;;;11.75;11.25;;;;;10.64;57.84;102147.41;5072965;28;45361;-73
2022/03/15 00:26:30;;;;;;;;;12.00;11.00;;;;;10.64;58.46;102147.41;5079590;28;45286;-73
2022/03/15 00:28:56;;;;;;;;;12.00;9.50;;;;;10.64;57.96;102146.47;5070796;27;45378;-73
2022/03/15 00:31:21;;;;;;;;;14.25;11.50;;;;;10.40;57.58;102098.69;5080296;27;46261;-73
2022/03/15 00:33:47;;;;;;;;;12.00;10.50;;;;;10.22;57.14;102067.00;5069777;28;45655;-73
2022/03/15 00:36:12;;;;;;;;;9.75;9.00;;;;;10.57;56.45;102134.72;5079904;27;45885;-73
2022/03/15 00:38:41;;;;;;;;;11.75;8.25;;;;;10.25;58.39;102081.28;5067472;27;45401;-73
2022/03/15 00:41:10;;;;;;;;;12.50;8.75;;;;;10.58;58.55;102138.28;5079642;27;46074;-73
2022/03/15 00:43:35;;;;;;;;;13.25;10.50;;;;;10.53;57.63;102138.09;5069556;27;45321;-73
2022/03/15 00:46:02;;;;;;;;;9.50;6.75;;;;;10.45;57.72;102136.81;5078486;28;45448;-73
2022/03/15 00:48:27;;;;;;;;;11.75;9.00;;;;;10.25;58.40;102099.78;5073878;27;45441;-73
2022/03/15 00:50:53;;;;;;;;;10.50;10.25;;;;;10.47;58.01;102140.41;5079479;28;45472;-73
2022/03/15 00:53:18;;;;;;;;;13.00;9.50;;;;;10.31;57.08;102117.69;5072155;28;45372;-73
2022/03/15 00:55:44;;;;;;;;;12.50;11.75;;;;;10.44;58.40;102140.28;5069089;27;45292;-73
2022/03/15 00:58:10;;;;;;;;;8.00;8.00;;;;;10.40;58.37;102135.69;5071624;28;46248;-73
2022/03/15 01:00:36;;;;;;;;;13.50;10.25;;;;;10.29;58.44;102122.88;5069339;28;46117;-73
2022/03/15 01:03:03;;;;;;;;;12.50;11.25;;;;;10.19;59.77;102095.91;5078078;28;45414;-73
2022/03/15 01:05:28;;;;;;;;;10.00;10.00;;;;;10.28;59.04;102118.44;5071071;27;45374;-73
2022/03/15 01:07:54;;;;;;;;;13.25;11.75;;;;;10.18;59.18;102089.72;5078466;28;45433;-73
2022/03/15 01:10:19;;;;;;;;;8.25;7.75;;;;;10.25;58.90;102105.06;5070968;27;45827;-73
2022/03/15 01:12:45;;;;;;;;;18.00;12.00;;;;;10.29;60.09;102120.25;5078429;27;45253;-73
2022/03/15 01:15:10;;;;;;;;;12.75;11.25;;;;;10.32;60.11;102115.94;5073319;27;45176;-73
2022/03/15 01:17:35;;;;;;;;;8.75;8.00;;;;;10.32;59.15;102105.38;5076507;28;45535;-72
2022/03/15 01:20:06;;;;;;;;;16.50;11.25;;;;;10.24;59.82;102097.94;5073715;27;45286;-72
2022/03/15 01:22:31;;;;;;;;;13.00;10.00;;;;;10.25;59.27;102093.56;5077790;28;45511;-73
2022/03/15 01:24:57;;;;;;;;;11.50;11.50;;;;;10.29;59.30;102092.91;5070935;28;45303;-72
2022/03/15 01:27:22;;;;;;;;;10.50;9.75;;;;;10.35;59.62;102100.22;5072091;28;46100;-72
2022/03/15 01:29:47;;;;;;;;;12.75;10.00;;;;;10.09;59.61;102052.31;5069870;27;46170;-73
2022/03/15 01:32:13;;;;;;;;;11.25;9.75;;;;;10.08;58.89;102051.44;5077955;27;45378;-73
2022/03/15 01:34:38;;;;;;;;;10.50;10.25;;;;;10.30;59.04;102082.38;5071480;28;45360;-72
2022/03/15 01:37:04;;;;;;;;;11.00;9.75;;;;;10.03;59.03;102013.31;5071303;28;45737;-72
2022/03/15 01:39:29;;;;;;;;;11.50;10.75;;;;;10.30;59.05;102063.00;5069658;27;46249;-72
2022/03/15 01:41:55;;;;;;;;;13.75;12.25;;;;;10.35;59.36;102069.41;5077896;27;45490;-72
2022/03/15 01:44:22;;;;;;;;;14.25;11.00;;;;;10.21;59.38;102038.78;5074151;27;45266;-72
2022/03/15 01:46:50;;;;;;;;;11.00;11.00;;;;;10.28;58.97;102052.38;5078031;27;45198;-72
2022/03/15 01:49:15;;;;;;;;;11.50;10.00;;;;;10.14;59.01;102031.38;5077040;28;45393;-72
2022/03/15 01:51:41;;;;;;;;;11.50;10.75;;;;;9.72;58.76;101952.91;5075285;28;45275;-73
2022/03/15 01:54:09;;;;;;;;;11.25;9.75;;;;;10.35;59.78;102061.47;5064157;28;45429;-72
2022/03/15 01:56:34;;;;;;;;;15.50;10.00;;;;;10.34;59.64;102059.69;5071169;28;45883;-73
2022/03/15 01:59:00;;;;;;;;;13.25;10.75;;;;;10.34;59.83;102053.50;5073994;27;45370;-72
2022/03/15 02:01:26;;;;;;;;;13.50;10.50;;;;;10.28;59.25;102043.53;5072439;28;45264;-72
2022/03/15 02:03:51;;;;;;;;;12.50;10.50;;;;;10.22;59.82;102024.72;5074749;28;45565;-73
2022/03/15 02:06:17;;;;;;;;;14.75;10.25;;;;;10.23;60.40;102034.47;5071120;28;47370;-72
2022/03/15 02:08:42;;;;;;;;;13.00;11.00;;;;;10.05;59.96;101993.16;5075974;28;45992;-72
2022/03/15 02:11:08;;;;;;;;;11.75;9.75;;;;;10.36;60.06;102042.13;5072823;28;45313;-72
2022/03/15 02:13:34;;;;;;;;;15.00;10.75;;;;;10.26;60.28;102027.56;5073667;28;45392;-72
2022/03/15 02:16:00;;;;;;;;;13.00;11.75;;;;;10.37;60.19;102030.75;5076748;28;45268;-73
2022/03/15 02:18:27;;;;;;;;;14.50;10.75;;;;;10.28;59.72;102015.38;5080786;28;46327;-74
2022/03/15 02:20:54;;;;;;;;;10.25;9.25;;;;;10.13;60.16;101985.56;5080313;28;46108;-72
2022/03/15 02:23:19;;;;;;;;;10.75;10.00;;;;;10.38;59.59;102029.88;5073701;27;45501;-73
2022/03/15 02:25:44;;;;;;;;;6.00;6.00;;;;;10.31;59.46;102009.31;5079893;28;45325;-72
2022/03/15 02:28:10;;;;;;;;;12.75;10.00;;;;;10.28;59.21;102004.81;5071707;27;45379;-73
2022/03/15 02:30:35;;;;;;;;;11.25;9.00;;;;;10.40;59.52;102019.41;5077090;28;46071;-74
2022/03/15 02:33:01;;;;;;;;;12.00;11.00;;;;;10.42;60.18;102015.06;5082959;27;45279;-72
2022/03/15 02:35:26;;;;;;;;;12.50;10.75;;;;;10.32;60.32;101992.63;5078521;28;46220;-72
2022/03/15 02:37:52;;;;;;;;;9.50;7.50;;;;;10.46;60.77;102009.09;5080540;28;45476;-74
2022/03/15 02:40:17;;;;;;;;;11.50;10.00;;;;;10.46;59.49;102009.09;5081493;28;45237;-73
2022/03/15 02:42:43;;;;;;;;;12.25;12.25;;;;;10.39;60.64;101996.44;5076188;27;45485;-73
2022/03/15 02:45:10;;;;;;;;;12.75;10.00;;;;;10.47;59.25;102002.97;5068725;27;45798;-73
2022/03/15 02:47:36;;;;;;;;;6.75;4.75;;;;;10.48;60.66;101997.75;5075914;28;45506;-73
2022/03/15 02:50:02;;;;;;;;;13.00;10.50;;;;;10.42;59.28;101989.56;5081022;27;45378;-73
2022/03/15 02:52:28;;;;;;;;;10.00;10.00;;;;;10.47;60.81;101989.75;5074213;28;45386;-73
2022/03/15 02:54:55;;;;;;;;;9.00;7.75;;;;;10.36;60.32;101975.16;5063999;28;45460;-73
2022/03/15 02:57:24;;;;;;;;;9.50;9.00;;;;;10.03;60.31;101912.94;5079320;28;45377;-73
2022/03/15 02:59:49;;;;;;;;;11.75;9.50;;;;;10.39;60.89;101967.34;5071442;28;45224;-73
2022/03/15 03:02:15;;;;;;;;;10.25;9.25;;;;;10.34;59.52;101943.38;5080377;28;45318;-71
2022/03/15 03:04:40;;;;;;;;;8.25;8.25;;;;;10.37;62.09;101938.22;5072062;28;45428;-73
2022/03/15 03:07:06;;;;;;;;;12.00;9.00;;;;;10.63;60.95;101971.06;5080252;28;46065;-74
2022/03/15 03:09:31;;;;;;;;;7.25;5.25;;;;;10.63;60.40;101963.13;5070760;28;45420;-72
2022/03/15 03:12:00;;;;;;;;;7.75;6.00;;;;;10.66;62.45;101965.00;5080276;27;45276;-73
2022/03/15 03:14:26;;;;;;;;;6.50;6.50;;;;;10.66;63.00;101962.38;5075230;28;46057;-71
2022/03/15 03:16:52;;;;;;;;;6.25;4.00;;;;;10.75;60.97;101970.69;5077522;28;48363;-73
2022/03/15 03:19:18;;;;;;;;;11.25;9.50;;;;;10.78;61.51;101970.81;5072037;27;45332;-72
2022/03/15 03:21:43;;;;;;;;;10.00;5.75;;;;;10.49;63.18;101914.97;5080709;28;45576;-74
2022/03/15 03:24:09;;;;;;;;;11.75;6.75;;;;;10.67;62.41;101933.34;5071109;27;45778;-74
2022/03/15 03:26:37;;;;;;;;;9.00;7.00;;;;;10.88;63.96;101961.53;5078871;28;46010;-74
2022/03/15 03:29:10;;;;;;;;;7.75;7.75;;;;;10.82;63.51;101951.59;5070090;28;45522;-74
2022/03/15 03:31:37;;;;;;;;;7.00;3.75;;;;;10.91;61.38;101966.94;5080588;27;45372;-73
2022/03/15 03:34:04;;;;;;;;;9.00;6.00;;;;;10.80;63.58;101953.28;5068322;28;46133;-73
2022/03/15 03:36:31;;;;;;;;;12.25;7.75;;;;;10.76;64.37;101935.47;5077927;28;47890;-73
2022/03/15 03:38:56;;;;;;;;;7.00;6.00;;;;;10.71;64.87;101923.81;5071240;28;45404;-74
2022/03/15 03:41:22;;;;;;;;;8.00;7.00;;;;;10.75;65.85;101939.88;5081086;27;45278;-73
2022/03/15 03:43:47;;;;;;;;;7.50;7.25;;;;;10.97;65.73;101961.91;5073377;27;45793;-73
2022/03/15 03:46:14;;;;;;;;;6.25;6.25;;;;;10.91;65.65;101953.72;5070495;28;45257;-73
2022/03/15 03:48:39;;;;;;;;;3.75;3.50;;;;;10.56;65.14;101878.19;5072200;28;45435;-73
2022/03/15 03:51:04;;;;;;;;;11.00;8.00;;;;;11.00;65.81;101946.16;5080053;27;45625;-74
2022/03/15 03:53:30;;;;;;;;;11.00;9.75;;;;;10.91;66.65;101930.81;5077689;27;45240;-73
2022/03/15 03:55:55;;;;;;;;;9.50;7.00;;;;;11.00;66.86;101945.25;5069895;27;45295;-73
2022/03/15 03:58:21;;;;;;;;;10.00;8.75;;;;;11.08;66.94;101959.72;5078984;27;45616;-73
2022/03/15 04:00:47;;;;;;;;;45.25;38.00;;;;;10.97;66.15;101952.22;5080505;28;45342;-73
2022/03/15 04:03:17;;;;;;;;;10.25;10.00;;;;;11.00;65.29;101954.09;5074763;27;45302;-74
2022/03/15 04:05:46;;;;;;;;;10.25;10.25;;;;;10.79;67.26;101937.34;5080344;28;45538;-73
2022/03/15 04:08:13;;;;;;;;;12.50;10.25;;;;;10.86;68.62;101961.44;5079178;27;45512;-73
2022/03/15 04:10:39;;;;;;;;;9.50;9.50;;;;;10.63;68.68;101926.13;5072548;28;45288;-73
2022/03/15 04:13:06;;;;;;;;;11.25;10.25;;;;;10.82;69.17;101953.34;5079045;28;45386;-73
2022/03/15 04:15:32;;;;;;;;;23.25;20.50;;;;;10.81;65.70;101955.09;5073278;27;45439;-73
2022/03/15 04:17:58;;;;;;;;;10.75;8.50;;;;;10.81;66.91;101951.53;5079186;28;45210;-74
2022/03/15 04:20:24;;;;;;;;;7.00;6.00;;;;;10.81;70.21;101947.16;5075162;27;45345;-74
2022/03/15 04:22:49;;;;;;;;;15.25;12.50;;;;;10.78;69.00;101939.06;5076408;28;45270;-74
2022/03/15 04:25:14;;;;;;;;;11.75;10.00;;;;;10.63;68.78;101912.91;5073779;28;46227;-74
2022/03/15 04:27:40;;;;;;;;;71.25;57.75;;;;;10.58;69.63;101909.16;5076376;28;45278;-74
2022/03/15 04:30:06;;;;;;;;;9.75;9.50;;;;;10.71;70.62;101932.63;5072665;28;45245;-72
2022/03/15 04:32:32;;;;;;;;;13.00;13.00;;;;;10.65;70.40;101899.75;5078562;27;45761;-73
2022/03/15 04:34:57;;;;;;;;;8.75;8.75;;;;;10.79;72.19;101938.25;5069827;28;46236;-74
2022/03/15 04:37:23;;;;;;;;;13.00;10.75;;;;;10.79;68.11;101935.59;5078866;27;45374;-73
2022/03/15 04:39:49;;;;;;;;;12.50;12.00;;;;;10.79;70.98;101929.41;5069389;28;45315;-73
2022/03/15 04:42:15;;;;;;;;;11.00;11.00;;;;;10.72;71.71;101918.56;5076475;27;45988;-73
2022/03/15 04:44:40;;;;;;;;;16.50;15.00;;;;;10.79;72.06;101918.84;5068153;28;46352;-73
2022/03/15 04:47:06;;;;;;;;;20.75;18.00;;;;;10.79;71.70;101914.44;5073274;28;45682;-73
2022/03/15 04:49:31;;;;;;;;;15.50;15.25;;;;;10.64;71.68;101882.06;5075925;28;45545;-73
2022/03/15 04:51:57;;;;;;;;;14.75;13.50;;;;;10.82;71.81;101911.03;5076597;27;45581;-73
2022/03/15 04:54:23;;;;;;;;;13.50;12.50;;;;;10.69;71.94;101892.00;5070901;28;46883;-73
2022/03/15 04:56:48;;;;;;;;;17.00;15.25;;;;;10.78;69.71;101909.06;5073665;28;45249;-73
2022/03/15 04:59:13;;;;;;;;;21.25;19.00;;;;;10.83;71.90;101913.72;5073757;28;45763;-73
2022/03/15 05:01:39;;;;;;;;;17.50;13.00;;;;;10.72;72.38;101897.41;5074401;28;45289;-73
2022/03/15 05:04:04;;;;;;;;;23.00;21.75;;;;;10.89;71.88;101916.59;5077135;28;47142;-73
2022/03/15 05:06:30;;;;;;;;;17.25;15.50;;;;;10.70;72.76;101892.91;5078704;28;45193;-73
2022/03/15 05:08:55;;;;;;;;;14.50;13.50;;;;;10.70;72.65;101892.91;5076250;27;45260;-73
2022/03/15 05:11:21;;;;;;;;;21.50;20.50;;;;;10.82;72.97;101911.03;5074658;28;46478;-73
2022/03/15 05:13:48;;;;;;;;;16.75;14.75;;;;;10.90;72.49;101925.47;5076580;28;46036;-73
2022/03/15 05:16:17;;;;;;;;;16.25;14.50;;;;;10.66;72.42;101876.00;5074892;28;45424;-73
2022/03/15 05:18:45;;;;;;;;;20.25;15.25;;;;;10.90;72.61;101922.81;5068336;28;45277;-73
2022/03/15 05:21:16;;;;;;;;;117.67;107.67;;;;;10.91;72.98;101927.28;5076809;28;46123;-73
2022/03/15 05:23:46;;;;;;;;;20.50;19.00;;;;;10.92;72.73;101923.78;5071050;28;47195;-73
2022/03/15 05:26:12;;;;;;;;;25.75;22.50;;;;;10.82;73.02;101900.44;5077590;28;45298;-73
2022/03/15 05:28:38;;;;;;;;;26.50;21.00;;;;;10.74;71.63;101881.63;5068854;27;45443;-73
2022/03/15 05:31:03;;;;;;;;;84.75;70.75;;;;;10.88;73.22;101912.16;5078685;27;45415;-73
2022/03/15 05:33:29;;;;;;;;;38.25;29.75;;;;;10.80;73.40;101897.72;5069471;27;46313;-73
2022/03/15 05:35:54;;;;;;;;;17.50;15.00;;;;;10.76;72.17;101893.16;5077811;28;45295;-73
2022/03/15 05:38:20;;;;;;;;;17.75;15.00;;;;;10.86;73.48;101915.59;5071393;27;45334;-72
2022/03/15 05:40:46;;;;;;;;;16.25;12.25;;;;;10.78;74.06;101894.09;5075088;28;46396;-73
2022/03/15 05:43:11;;;;;;;;;13.25;12.75;;;;;10.98;74.16;101932.88;5073406;27;45375;-72
2022/03/15 05:45:37;;;;;;;;;17.50;16.00;;;;;10.98;72.95;101922.28;5077029;28;45982;-73
2022/03/15 05:48:03;;;;;;;;;24.25;21.00;;;;;10.95;74.60;101923.88;5073346;27;45277;-72
2022/03/15 05:50:29;;;;;;;;;68.75;54.50;;;;;10.89;74.96;101907.78;5078347;27;45899;-72
2022/03/15 05:52:55;;;;;;;;;50.00;40.00;;;;;10.97;75.09;101919.56;5075383;27;46350;-73
2022/03/15 05:55:21;;;;;;;;;30.75;27.25;;;;;10.80;73.98;101892.44;5078581;28;45231;-72
2022/03/15 05:57:46;;;;;;;;;27.75;22.25;;;;;11.00;74.69;101930.28;5077621;28;45408;-73
2022/03/15 06:00:12;;;;;;;;;19.50;18.75;;;;;10.83;74.41;101900.50;5068326;27;45352;-73
2022/03/15 06:02:38;;;;;;;;;15.50;15.00;;;;;10.86;74.15;101902.38;5072357;28;47233;-72
2022/03/15 06:05:03;;;;;;;;;21.50;20.25;;;;;10.78;74.73;101888.81;5068684;28;44717;-72
2022/03/15 06:07:30;;;;;;;;;53.75;41.00;;;;;10.62;73.62;101866.16;5068819;28;45419;-73
2022/03/15 06:09:58;;;;;;;;;18.50;14.75;;;;;11.00;73.77;101930.28;5076689;28;47060;-73
2022/03/15 06:12:24;;;;;;;;;80.50;66.00;;;;;10.99;74.08;101928.47;5077479;27;46149;-73
2022/03/15 06:14:49;;;;;;;;;32.00;30.75;;;;;11.00;75.15;101934.69;5072243;28;45239;-73
2022/03/15 06:17:15;;;;;;;;;28.00;23.75;;;;;10.86;75.54;101919.13;5077655;28;45290;-73
2022/03/15 06:19:40;;;;;;;;;43.50;37.25;;;;;10.88;74.57;101925.41;5073169;28;45240;-73
2022/03/15 06:22:05;;;;;;;;;25.50;22.75;;;;;10.82;74.79;101918.97;5074826;28;46709;-73
2022/03/15 06:24:31;;;;;;;;;19.50;18.00;;;;;10.61;74.53;101880.19;5078257;28;46015;-73
2022/03/15 06:26:58;;;;;;;;;212.00;200.25;;;;;10.77;74.14;101907.28;5076283;28;45523;-73
2022/03/15 06:29:25;;;;;;;;;35.50;33.50;;;;;10.90;74.95;101929.03;5069015;27;45387;-72
2022/03/15 06:31:51;;;;;;;;;67.50;54.00;;;;;10.88;75.15;101927.16;5076425;28;47113;-71
2022/03/15 06:34:16;;;;;;;;;53.25;41.75;;;;;10.85;73.26;101927.03;5074251;28;45848;-71
2022/03/15 06:36:42;;;;;;;;;40.25;33.75;;;;;10.84;73.86;101923.47;5076540;28;45329;-73
2022/03/15 06:39:07;;;;;;;;;30.00;25.50;;;;;10.67;73.57;101900.69;5071660;28;46145;-74
2022/03/15 06:41:38;;;;;;;;;54.50;44.50;;;;;10.77;74.48;101915.22;5077437;27;45630;-74
2022/03/15 06:44:05;;;;;;;;;23.50;21.75;;;;;10.68;73.30;101903.41;5068598;28;45416;-73
2022/03/15 06:46:30;;;;;;;;;28.00;26.75;;;;;10.77;74.87;101926.69;5068989;28;45373;-74
2022/03/15 06:48:56;;;;;;;;;24.00;21.25;;;;;10.85;75.48;101930.56;5072259;28;45505;-74
2022/03/15 06:51:22;;;;;;;;;24.00;22.00;;;;;10.84;75.54;101934.06;5078121;27;47281;-71
2022/03/15 06:53:47;;;;;;;;;29.50;24.50;;;;;10.83;75.68;101933.97;5075665;28;45445;-74
2022/03/15 06:56:13;;;;;;;;;20.25;18.00;;;;;10.65;75.45;101902.41;5078181;28;45395;-75
2022/03/15 06:58:38;;;;;;;;;22.00;21.00;;;;;10.82;73.59;101933.09;5078493;27;45424;-75
2022/03/15 07:01:03;;;;;;;;;25.75;23.75;;;;;10.81;76.04;101923.34;5072421;28;46173;-73
2022/03/15 07:03:29;;;;;;;;;19.25;16.50;;;;;10.80;74.20;101926.81;5079953;28;45383;-72
2022/03/15 07:05:54;;;;;;;;;23.50;22.50;;;;;10.79;74.64;101921.47;5071672;27;45848;-73
2022/03/15 07:08:20;;;;;;;;;25.00;23.75;;;;;10.79;74.15;101925.03;5078624;28;45489;-73
2022/03/15 07:10:45;;;;;;;;;20.00;19.00;;;;;10.79;74.81;101926.78;5077761;27;45430;-72
2022/03/15 07:13:10;;;;;;;;;19.25;19.25;;;;;10.73;76.07;101916.84;5080396;28;45392;-73
2022/03/15 07:15:36;;;;;;;;;25.25;20.75;;;;;10.72;76.04;101925.59;5075921;27;45266;-73
2022/03/15 07:18:01;;;;;;;;;27.75;24.75;;;;;10.76;74.29;101924.91;5079767;28;45488;-74
2022/03/15 07:20:27;;;;;;;;;26.25;24.25;;;;;10.79;71.90;101937.34;5076392;27;45372;-74
2022/03/15 07:22:53;;;;;;;;;26.00;24.25;;;;;10.65;75.57;101920.91;5073465;28;45351;-74
2022/03/15 07:25:20;;;;;;;;;28.00;24.75;;;;;10.72;75.90;101933.53;5081276;27;45390;-73
2022/03/15 07:27:46;;;;;;;;;24.00;22.75;;;;;10.70;75.86;101928.19;5078512;27;45492;-74
2022/03/15 07:30:12;;;;;;;;;25.00;21.25;;;;;10.72;75.83;101931.78;5073628;28;45605;-74
2022/03/15 07:32:37;;;;;;;;;19.75;19.25;;;;;10.79;73.85;101940.91;5079480;27;45433;-73
2022/03/15 07:35:03;;;;;;;;;26.50;24.75;;;;;10.75;74.87;101939.88;5072693;28;45349;-74
2022/03/15 07:37:28;;;;;;;;;25.50;22.50;;;;;10.66;75.25;101923.59;5077595;28;47057;-73
2022/03/15 07:39:54;;;;;;;;;23.00;23.00;;;;;10.59;75.78;101904.78;5070061;27;45356;-74
2022/03/15 07:42:19;;;;;;;;;22.00;20.50;;;;;10.77;75.77;101929.34;5075983;28;45249;-74
2022/03/15 07:44:45;;;;;;;;;24.00;20.25;;;;;10.69;74.36;101921.06;5071304;28;45415;-74
2022/03/15 07:47:15;;;;;;;;;26.50;22.00;;;;;10.81;76.42;101931.28;5073602;28;46003;-73
2022/03/15 07:49:41;;;;;;;;;29.00;26.00;;;;;10.79;77.57;101925.03;5077092;28;46139;-73
2022/03/15 07:52:07;;;;;;;;;32.50;31.50;;;;;10.81;75.86;101928.66;5078443;28;45394;-74
2022/03/15 07:54:34;;;;;;;;;317.75;240.50;;;;;10.83;73.73;101916.38;5071607;28;45430;-73
2022/03/15 07:56:59;;;;;;;;;119.00;94.00;;;;;10.87;76.01;101912.13;5084730;27;46307;-73
2022/03/15 07:59:26;;;;;;;;;58.00;43.75;;;;;10.86;75.59;101911.19;5078943;28;46545;-73
2022/03/15 08:01:51;;;;;;;;;48.00;38.25;;;;;10.81;74.13;101895.97;5079771;27;45640;-74
2022/03/15 08:04:17;;;;;;;;;129.33;108.00;;;;;10.96;76.94;101928.38;5074691;27;45430;-73
2022/03/15 08:06:42;;;;;;;;;63.25;49.50;;;;;10.97;73.34;101914.28;5077253;28;45338;-73
2022/03/15 08:09:08;;;;;;;;;66.75;53.00;;;;;10.96;74.79;101923.06;5074236;28;47482;-74
2022/03/15 08:11:35;;;;;;;;;32.75;29.50;;;;;10.78;74.93;101898.50;5076829;28;45378;-73
2022/03/15 08:14:01;;;;;;;;;68.75;54.75;;;;;10.89;75.55;101907.78;5072928;28;45379;-73
2022/03/15 08:16:27;;;;;;;;;60.25;48.25;;;;;10.94;72.74;101907.13;5079981;27;45386;-73
2022/03/15 08:18:53;;;;;;;;;76.50;58.75;;;;;11.01;74.45;101921.53;5068076;27;46538;-73
2022/03/15 08:21:20;;;;;;;;;60.50;48.00;;;;;10.86;75.84;101900.63;5078706;28;45362;-73
2022/03/15 08:23:46;;;;;;;;;38.25;34.25;;;;;11.05;75.77;101914.59;5072988;28;48284;-73
2022/03/15 08:26:13;;;;;;;;;147.33;127.67;;;;;10.95;72.82;101901.00;5077526;28;47538;-73
2022/03/15 08:28:39;;;;;;;;;63.00;49.75;;;;;11.01;75.91;101915.31;5070296;28;45682;-73
2022/03/15 08:31:04;;;;;;;;;54.00;44.25;;;;;11.05;76.42;101926.09;5076229;28;45392;-73
2022/03/15 08:33:30;;;;;;;;;129.67;115.33;;;;;11.08;76.54;101926.19;5071246;27;45605;-74
2022/03/15 08:35:55;;;;;;;;;86.00;73.00;;;;;10.94;74.91;101898.28;5077230;28;46346;-73
2022/03/15 08:38:21;;;;;;;;;30.00;27.00;;;;;10.98;74.59;101897.59;5079181;27;47003;-73
2022/03/15 08:40:47;;;;;;;;;33.00;32.00;;;;;10.90;76.35;101875.22;5078198;28;45564;-73
2022/03/15 08:43:12;;;;;;;;;41.25;35.50;;;;;11.11;74.40;101904.25;5074565;27;45355;-74
2022/03/15 08:45:38;;;;;;;;;49.50;38.25;;;;;11.10;76.29;101916.59;5066767;27;45274;-73
2022/03/15 08:48:04;;;;;;;;;47.50;38.25;;;;;11.18;76.75;101928.38;5074186;28;45546;-73
2022/03/15 08:50:30;;;;;;;;;32.50;27.50;;;;;11.22;74.57;101937.34;5078112;28;46076;-73
2022/03/15 08:52:57;;;;;;;;;37.75;30.25;;;;;11.24;74.80;101938.31;5078036;27;45516;-73
2022/03/15 08:55:23;;;;;;;;;34.25;32.25;;;;;11.23;74.34;101936.53;5069586;27;45397;-73
2022/03/15 08:57:49;;;;;;;;;37.25;32.25;;;;;11.14;75.99;101920.25;5078457;27;45365;-74
2022/03/15 09:00:15;;;;;;;;;263.00;241.33;;;;;11.28;75.62;101931.38;5067136;28;45353;-73
2022/03/15 09:02:41;;;;;;;;;93.33;83.67;;;;;11.17;75.16;101923.03;5069889;28;45437;-73
2022/03/15 09:05:07;;;;;;;;;54.00;44.25;;;;;11.20;75.39;101941.66;5071941;27;45415;-73
2022/03/15 09:07:32;;;;;;;;;41.50;35.00;;;;;11.13;75.41;101939.63;5078797;28;46432;-73
2022/03/15 09:09:57;;;;;;;;;37.25;32.25;;;;;11.23;76.32;101952.41;5071791;28;45448;-73
2022/03/15 09:12:23;;;;;;;;;36.25;30.00;;;;;11.32;75.96;101952.75;5074655;28;45687;-73
2022/03/15 09:14:48;;;;;;;;;85.00;77.67;;;;;11.28;75.16;101944.63;5077447;28;47393;-74
2022/03/15 09:17:14;;;;;;;;;42.00;35.00;;;;;11.19;75.74;101931.94;5078222;28;45384;-74
2022/03/15 09:19:40;;;;;;;;;43.75;36.25;;;;;11.20;76.55;101929.34;5070042;28;45217;-74
2022/03/15 09:22:07;;;;;;;;;46.00;37.00;;;;;11.34;75.54;101943.16;5078136;28;45208;-73
2022/03/15 09:24:35;;;;;;;;;36.75;33.00;;;;;11.38;76.16;101950.34;5068510;28;45949;-73
2022/03/15 09:27:00;;;;;;;;;58.75;48.25;;;;;11.39;76.54;101951.25;5078306;27;46149;-73
2022/03/15 09:29:26;;;;;;;;;42.75;35.00;;;;;11.29;75.78;101934.13;5069826;27;45555;-73
2022/03/15 09:31:51;;;;;;;;;42.00;34.75;;;;;11.36;75.66;101943.19;5076715;28;45276;-74
2022/03/15 09:34:21;;;;;;;;;57.75;46.25;;;;;11.29;75.12;101917.34;5075798;28;45902;-74
2022/03/15 09:36:47;;;;;;;;;70.50;56.25;;;;;11.43;74.40;101945.25;5078248;27;45509;-74
2022/03/15 09:39:13;;;;;;;;;67.75;55.00;;;;;11.43;74.48;101932.91;5077065;28;45343;-74
2022/03/15 09:41:40;;;;;;;;;60.25;47.50;;;;;11.40;75.47;101926.59;5076904;28;45328;-73
2022/03/15 09:44:10;;;;;;;;;52.00;38.50;;;;;11.43;76.53;101929.38;5071769;28;45334;-73
2022/03/15 09:46:49;;;;;;;;;54.50;42.50;;;;;11.06;75.24;101864.41;5071152;28;45298;-74
2022/03/15 09:49:16;;;;;;;;;56.50;47.00;;;;;11.53;75.34;101920.91;5076494;28;45362;-73
2022/03/15 09:51:42;;;;;;;;;45.50;38.25;;;;;11.58;75.57;101929.94;5078079;27;45423;-73
2022/03/15 09:54:08;;;;;;;;;35.75;32.25;;;;;11.64;76.15;101926.63;5073900;28;45338;-73
2022/03/15 09:56:39;;;;;;;;;46.25;37.25;;;;;11.68;76.00;101912.66;5072047;28;45588;-73
2022/03/15 09:59:16;;;;;;;;;53.00;42.50;;;;;11.66;74.07;101901.09;5068810;28;45338;-73
2022/03/15 10:01:43;;;;;;;;;39.00;34.50;;;;;11.78;75.92;101916.56;5078275;27;45265;-73
2022/03/15 10:04:09;;;;;;;;;41.50;35.50;;;;;11.75;75.60;101914.69;5073650;28;45320;-73
2022/03/15 10:06:37;;;;;;;;;52.75;41.25;;;;;11.80;75.70;101913.13;5073861;28;46124;-73
2022/03/15 10:09:03;;;;;;;;;33.25;31.00;;;;;11.69;75.76;101887.97;5074705;28;45468;-73
2022/03/15 10:11:28;;;;;;;;;34.75;32.50;;;;;11.84;75.79;101915.00;5073570;28;45492;-73
2022/03/15 10:13:54;;;;;;;;;35.00;33.00;;;;;11.89;75.23;101919.63;5075649;27;45360;-73
2022/03/15 10:16:21;;;;;;;;;39.00;33.75;;;;;11.90;74.90;101917.03;5074351;28;45349;-73
2022/03/15 10:18:57;;;;;;;;;44.75;38.25;;;;;11.92;74.62;101917.09;5080821;27;45470;-73
2022/03/15 10:21:25;;;;;;;;;37.75;34.25;;;;;11.92;74.19;101914.44;5075711;28;45316;-73
2022/03/15 10:23:54;;;;;;;;;38.25;36.00;;;;;11.89;75.09;101917.88;5080665;27;45406;-73
2022/03/15 10:26:27;;;;;;;;;40.75;32.50;;;;;11.74;73.05;101896.09;5076676;28;47195;-73
2022/03/15 10:28:54;;;;;;;;;33.75;33.00;;;;;11.88;74.41;101923.16;5068280;28;45386;-73
2022/03/15 10:31:24;;;;;;;;;30.25;30.25;;;;;11.63;74.79;101877.16;5078020;28;45474;-73
2022/03/15 10:33:54;;;;;;;;;35.50;33.00;;;;;11.62;75.65;101876.25;5069982;28;45268;-73
2022/03/15 10:36:21;;;;;;;;;40.25;34.75;;;;;11.76;75.19;101889.09;5081550;27;45322;-73
2022/03/15 10:38:52;;;;;;;;;45.50;37.75;;;;;11.83;73.66;101904.38;5079259;28;45528;-73
2022/03/15 10:41:20;;;;;;;;;34.75;31.25;;;;;11.63;74.88;101875.41;5081603;27;45495;-72
2022/03/15 10:43:53;;;;;;;;;43.00;36.25;;;;;11.80;74.46;101909.56;5075200;27;45379;-73
2022/03/15 10:46:24;;;;;;;;;41.50;34.25;;;;;11.75;75.40;101897.91;5069849;28;45350;-73
2022/03/15 10:49:00;;;;;;;;;34.00;30.75;;;;;11.81;75.68;101901.66;5071174;28;45339;-73
2022/03/15 10:51:25;;;;;;;;;37.00;31.50;;;;;11.56;76.24;101852.19;5080697;27;46400;-73
2022/03/15 10:53:50;;;;;;;;;40.50;32.25;;;;;11.67;74.97;101864.94;5072956;28;46197;-73
2022/03/15 10:56:22;;;;;;;;;38.25;33.00;;;;;11.78;75.43;101898.00;5084118;27;45977;-73
2022/03/15 10:59:03;;;;;;;;;38.00;33.00;;;;;11.70;74.54;101876.53;5079112;27;45438;-73
2022/03/15 11:01:35;;;;;;;;;40.25;35.00;;;;;11.85;75.41;101905.34;5076153;28;45316;-73
2022/03/15 11:04:12;;;;;;;;;44.75;35.75;;;;;11.76;74.53;101876.78;5077246;28;45407;-73
2022/03/15 11:06:43;;;;;;;;;37.50;34.25;;;;;11.91;74.45;101902.94;5075473;28;48210;-74
2022/03/15 11:09:20;;;;;;;;;34.00;31.75;;;;;11.78;75.07;101880.34;5073805;28;45309;-73